Terminal Aerodrome Forecast
Issued by NWS Cleveland, OH

Home | Current Version | Previous Version | Text Only | Print | Product List | Glossary On
Versions: 1 2 3 4 5 6 7 8 9 10 11 12 13 14 15
000
FTUS41 KCLE 242300
TAFMFD
TAF
KMFD 242330Z 2500/2524 20008KT P6SM OVC250
     FM250200 VRB03KT P6SM OVC100
     FM251600 10012KT P6SM -RA OVC050
     FM251800 08015G25KT 4SM -RA BR OVC050
     FM252000 06010G20KT 4SM -RA BR OVC007
     FM252200 05012KT 2SM -RA BR OVC007=

USA.gov is the U.S. government's official web portal to all federal, state and local government web resources and services.